sensor_id;sensor_type;location;lat;lon;timestamp;P1;durP1;ratioP1;P2;durP2;ratioP2
5811;SDS011;2932;52.400;9.558;2024-01-30T00:02:07;10.83;;;6.87;;
5811;SDS011;2932;52.400;9.558;2024-01-30T00:04:32;9.83;;;6.10;;
5811;SDS011;2932;52.400;9.558;2024-01-30T00:06:58;8.57;;;5.73;;
5811;SDS011;2932;52.400;9.558;2024-01-30T00:09:23;8.63;;;6.20;;
5811;SDS011;2932;52.400;9.558;2024-01-30T00:11:48;7.90;;;5.93;;
5811;SDS011;2932;52.400;9.558;2024-01-30T00:14:14;8.20;;;6.00;;
5811;SDS011;2932;52.400;9.558;2024-01-30T00:16:39;10.67;;;6.87;;
5811;SDS011;2932;52.400;9.558;2024-01-30T00:19:04;8.60;;;5.93;;
5811;SDS011;2932;52.400;9.558;2024-01-30T00:21:30;8.47;;;5.40;;
5811;SDS011;2932;52.400;9.558;2024-01-30T00:23:55;7.27;;;5.70;;
5811;SDS011;2932;52.400;9.558;2024-01-30T00:26:20;9.93;;;6.03;;
5811;SDS011;2932;52.400;9.558;2024-01-30T00:28:46;8.27;;;5.80;;
5811;SDS011;2932;52.400;9.558;2024-01-30T00:31:11;9.47;;;5.83;;
5811;SDS011;2932;52.400;9.558;2024-01-30T00:33:40;10.27;;;6.97;;
5811;SDS011;2932;52.400;9.558;2024-01-30T00:36:06;10.47;;;7.33;;
5811;SDS011;2932;52.400;9.558;2024-01-30T00:38:34;9.77;;;6.90;;
5811;SDS011;2932;52.400;9.558;2024-01-30T00:40:59;9.10;;;5.90;;
5811;SDS011;2932;52.400;9.558;2024-01-30T00:43:25;10.63;;;6.80;;
5811;SDS011;2932;52.400;9.558;2024-01-30T00:45:50;10.73;;;7.10;;
5811;SDS011;2932;52.400;9.558;2024-01-30T00:48:17;9.83;;;6.37;;
5811;SDS011;2932;52.400;9.558;2024-01-30T00:50:43;10.13;;;6.90;;
5811;SDS011;2932;52.400;9.558;2024-01-30T00:53:08;11.13;;;6.03;;
5811;SDS011;2932;52.400;9.558;2024-01-30T00:55:33;11.83;;;6.20;;
5811;SDS011;2932;52.400;9.558;2024-01-30T00:57:59;10.40;;;6.33;;
5811;SDS011;2932;52.400;9.558;2024-01-30T01:00:24;9.87;;;6.30;;
5811;SDS011;2932;52.400;9.558;2024-01-30T01:02:54;12.63;;;7.07;;
5811;SDS011;2932;52.400;9.558;2024-01-30T01:05:22;11.70;;;6.50;;
5811;SDS011;2932;52.400;9.558;2024-01-30T01:07:47;9.07;;;6.40;;
5811;SDS011;2932;52.400;9.558;2024-01-30T01:10:13;9.77;;;6.73;;
5811;SDS011;2932;52.400;9.558;2024-01-30T01:12:39;8.80;;;6.73;;
5811;SDS011;2932;52.400;9.558;2024-01-30T01:15:05;7.93;;;6.20;;
5811;SDS011;2932;52.400;9.558;2024-01-30T01:17:30;12.20;;;6.50;;
5811;SDS011;2932;52.400;9.558;2024-01-30T01:19:58;11.23;;;6.57;;
5811;SDS011;2932;52.400;9.558;2024-01-30T01:22:24;8.83;;;6.23;;
5811;SDS011;2932;52.400;9.558;2024-01-30T01:24:49;9.97;;;6.60;;
5811;SDS011;2932;52.400;9.558;2024-01-30T01:27:14;8.90;;;6.90;;
5811;SDS011;2932;52.400;9.558;2024-01-30T01:29:40;9.50;;;6.53;;
5811;SDS011;2932;52.400;9.558;2024-01-30T01:32:05;12.70;;;7.13;;
5811;SDS011;2932;52.400;9.558;2024-01-30T01:34:30;9.17;;;6.43;;
5811;SDS011;2932;52.400;9.558;2024-01-30T01:36:56;9.87;;;6.23;;
5811;SDS011;2932;52.400;9.558;2024-01-30T01:39:22;9.70;;;6.47;;
5811;SDS011;2932;52.400;9.558;2024-01-30T01:41:49;9.47;;;6.37;;
5811;SDS011;2932;52.400;9.558;2024-01-30T01:44:14;8.10;;;6.00;;
5811;SDS011;2932;52.400;9.558;2024-01-30T01:46:39;9.97;;;7.27;;
5811;SDS011;2932;52.400;9.558;2024-01-30T01:49:05;10.47;;;7.07;;
5811;SDS011;2932;52.400;9.558;2024-01-30T01:51:33;14.33;;;6.77;;
5811;SDS011;2932;52.400;9.558;2024-01-30T01:54:01;11.37;;;7.53;;
5811;SDS011;2932;52.400;9.558;2024-01-30T01:56:29;12.93;;;7.27;;
5811;SDS011;2932;52.400;9.558;2024-01-30T01:58:55;12.83;;;7.37;;
5811;SDS011;2932;52.400;9.558;2024-01-30T02:01:24;11.93;;;7.13;;
5811;SDS011;2932;52.400;9.558;2024-01-30T02:03:51;8.77;;;6.93;;
5811;SDS011;2932;52.400;9.558;2024-01-30T02:06:16;10.77;;;6.87;;
5811;SDS011;2932;52.400;9.558;2024-01-30T02:08:42;8.70;;;6.70;;
5811;SDS011;2932;52.400;9.558;2024-01-30T02:11:07;10.50;;;7.30;;
5811;SDS011;2932;52.400;9.558;2024-01-30T02:13:35;11.43;;;7.50;;
5811;SDS011;2932;52.400;9.558;2024-01-30T02:16:00;12.60;;;7.27;;
5811;SDS011;2932;52.400;9.558;2024-01-30T02:18:26;10.90;;;7.30;;
5811;SDS011;2932;52.400;9.558;2024-01-30T02:20:51;13.07;;;7.67;;
5811;SDS011;2932;52.400;9.558;2024-01-30T02:23:21;12.23;;;7.40;;
5811;SDS011;2932;52.400;9.558;2024-01-30T02:25:50;10.23;;;6.97;;
5811;SDS011;2932;52.400;9.558;2024-01-30T02:28:17;11.87;;;6.63;;
5811;SDS011;2932;52.400;9.558;2024-01-30T02:30:43;12.83;;;7.00;;
5811;SDS011;2932;52.400;9.558;2024-01-30T02:33:08;9.77;;;6.63;;
5811;SDS011;2932;52.400;9.558;2024-01-30T02:35:34;8.97;;;6.87;;
5811;SDS011;2932;52.400;9.558;2024-01-30T02:38:00;9.10;;;6.37;;
5811;SDS011;2932;52.400;9.558;2024-01-30T02:40:25;10.50;;;7.13;;
5811;SDS011;2932;52.400;9.558;2024-01-30T02:42:51;8.97;;;6.53;;
5811;SDS011;2932;52.400;9.558;2024-01-30T02:45:16;10.63;;;7.27;;
5811;SDS011;2932;52.400;9.558;2024-01-30T02:47:42;12.37;;;7.37;;
5811;SDS011;2932;52.400;9.558;2024-01-30T02:50:07;10.53;;;7.53;;
5811;SDS011;2932;52.400;9.558;2024-01-30T02:52:33;12.27;;;7.20;;
5811;SDS011;2932;52.400;9.558;2024-01-30T02:54:59;9.87;;;7.30;;
5811;SDS011;2932;52.400;9.558;2024-01-30T02:57:24;10.20;;;7.57;;
5811;SDS011;2932;52.400;9.558;2024-01-30T02:59:50;10.33;;;7.30;;
5811;SDS011;2932;52.400;9.558;2024-01-30T03:02:15;10.53;;;7.13;;
5811;SDS011;2932;52.400;9.558;2024-01-30T03:04:43;11.63;;;7.60;;
5811;SDS011;2932;52.400;9.558;2024-01-30T03:07:08;10.63;;;6.90;;
5811;SDS011;2932;52.400;9.558;2024-01-30T03:09:34;10.73;;;7.23;;
5811;SDS011;2932;52.400;9.558;2024-01-30T03:12:00;9.97;;;7.20;;
5811;SDS011;2932;52.400;9.558;2024-01-30T03:14:26;10.30;;;7.13;;
5811;SDS011;2932;52.400;9.558;2024-01-30T03:16:51;11.63;;;8.00;;
5811;SDS011;2932;52.400;9.558;2024-01-30T03:19:16;11.53;;;7.77;;
5811;SDS011;2932;52.400;9.558;2024-01-30T03:21:42;10.93;;;7.13;;
5811;SDS011;2932;52.400;9.558;2024-01-30T03:24:07;11.10;;;7.50;;
5811;SDS011;2932;52.400;9.558;2024-01-30T03:26:32;10.97;;;7.50;;
5811;SDS011;2932;52.400;9.558;2024-01-30T03:28:57;11.63;;;7.30;;
5811;SDS011;2932;52.400;9.558;2024-01-30T03:31:23;15.27;;;7.73;;
5811;SDS011;2932;52.400;9.558;2024-01-30T03:33:49;10.63;;;7.13;;
5811;SDS011;2932;52.400;9.558;2024-01-30T03:36:15;13.90;;;7.53;;
5811;SDS011;2932;52.400;9.558;2024-01-30T03:38:40;15.27;;;7.87;;
5811;SDS011;2932;52.400;9.558;2024-01-30T03:41:09;14.60;;;7.27;;
5811;SDS011;2932;52.400;9.558;2024-01-30T03:43:35;12.23;;;7.20;;
5811;SDS011;2932;52.400;9.558;2024-01-30T03:46:01;11.10;;;7.37;;
5811;SDS011;2932;52.400;9.558;2024-01-30T03:48:27;11.53;;;6.97;;
5811;SDS011;2932;52.400;9.558;2024-01-30T03:50:52;9.60;;;7.20;;
5811;SDS011;2932;52.400;9.558;2024-01-30T03:53:17;9.47;;;7.00;;
5811;SDS011;2932;52.400;9.558;2024-01-30T03:55:43;8.73;;;7.30;;
5811;SDS011;2932;52.400;9.558;2024-01-30T03:58:08;9.20;;;6.77;;
5811;SDS011;2932;52.400;9.558;2024-01-30T04:00:34;9.87;;;7.83;;
5811;SDS011;2932;52.400;9.558;2024-01-30T04:02:59;11.60;;;7.90;;
5811;SDS011;2932;52.400;9.558;2024-01-30T04:05:24;11.27;;;7.20;;
5811;SDS011;2932;52.400;9.558;2024-01-30T04:07:49;11.97;;;7.30;;
5811;SDS011;2932;52.400;9.558;2024-01-30T04:10:15;10.67;;;7.10;;
5811;SDS011;2932;52.400;9.558;2024-01-30T04:12:41;10.70;;;7.30;;
5811;SDS011;2932;52.400;9.558;2024-01-30T04:15:06;9.60;;;7.13;;
5811;SDS011;2932;52.400;9.558;2024-01-30T04:17:32;9.97;;;7.50;;
5811;SDS011;2932;52.400;9.558;2024-01-30T04:19:58;12.77;;;7.97;;
5811;SDS011;2932;52.400;9.558;2024-01-30T04:22:23;10.30;;;7.33;;
5811;SDS011;2932;52.400;9.558;2024-01-30T04:24:51;12.93;;;7.37;;
5811;SDS011;2932;52.400;9.558;2024-01-30T04:27:19;12.40;;;7.83;;
5811;SDS011;2932;52.400;9.558;2024-01-30T04:29:45;13.23;;;7.50;;
5811;SDS011;2932;52.400;9.558;2024-01-30T04:32:10;10.43;;;7.33;;
5811;SDS011;2932;52.400;9.558;2024-01-30T04:34:36;10.97;;;7.53;;
5811;SDS011;2932;52.400;9.558;2024-01-30T04:37:01;12.03;;;7.27;;
5811;SDS011;2932;52.400;9.558;2024-01-30T04:39:27;11.57;;;7.87;;
5811;SDS011;2932;52.400;9.558;2024-01-30T04:41:52;11.83;;;7.77;;
5811;SDS011;2932;52.400;9.558;2024-01-30T04:44:17;12.87;;;7.73;;
5811;SDS011;2932;52.400;9.558;2024-01-30T04:46:43;13.50;;;7.73;;
5811;SDS011;2932;52.400;9.558;2024-01-30T04:49:08;15.83;;;7.53;;
5811;SDS011;2932;52.400;9.558;2024-01-30T04:51:33;10.43;;;7.97;;
5811;SDS011;2932;52.400;9.558;2024-01-30T04:53:59;9.10;;;6.60;;
5811;SDS011;2932;52.400;9.558;2024-01-30T04:56:24;10.70;;;6.73;;
5811;SDS011;2932;52.400;9.558;2024-01-30T04:58:50;12.20;;;7.23;;
5811;SDS011;2932;52.400;9.558;2024-01-30T05:01:16;15.33;;;8.10;;
5811;SDS011;2932;52.400;9.558;2024-01-30T05:03:42;10.90;;;6.90;;
5811;SDS011;2932;52.400;9.558;2024-01-30T05:06:07;12.40;;;8.73;;
5811;SDS011;2932;52.400;9.558;2024-01-30T05:08:33;11.53;;;7.07;;
5811;SDS011;2932;52.400;9.558;2024-01-30T05:11:01;12.23;;;7.20;;
5811;SDS011;2932;52.400;9.558;2024-01-30T05:13:28;10.10;;;7.50;;
5811;SDS011;2932;52.400;9.558;2024-01-30T05:15:54;10.30;;;7.23;;
5811;SDS011;2932;52.400;9.558;2024-01-30T05:18:20;11.20;;;7.00;;
5811;SDS011;2932;52.400;9.558;2024-01-30T05:20:45;10.73;;;7.40;;
5811;SDS011;2932;52.400;9.558;2024-01-30T05:23:10;10.97;;;7.13;;
5811;SDS011;2932;52.400;9.558;2024-01-30T05:25:35;11.03;;;7.47;;
5811;SDS011;2932;52.400;9.558;2024-01-30T05:28:01;11.37;;;7.63;;
5811;SDS011;2932;52.400;9.558;2024-01-30T05:30:26;9.73;;;7.37;;
5811;SDS011;2932;52.400;9.558;2024-01-30T05:32:51;12.33;;;7.57;;
5811;SDS011;2932;52.400;9.558;2024-01-30T05:35:17;10.77;;;7.57;;
5811;SDS011;2932;52.400;9.558;2024-01-30T05:37:43;11.83;;;7.77;;
5811;SDS011;2932;52.400;9.558;2024-01-30T05:40:08;11.53;;;7.80;;
5811;SDS011;2932;52.400;9.558;2024-01-30T05:42:34;11.07;;;7.67;;
5811;SDS011;2932;52.400;9.558;2024-01-30T05:44:59;10.87;;;7.30;;
5811;SDS011;2932;52.400;9.558;2024-01-30T05:47:24;11.20;;;7.40;;
5811;SDS011;2932;52.400;9.558;2024-01-30T05:49:50;11.77;;;7.63;;
5811;SDS011;2932;52.400;9.558;2024-01-30T05:52:15;10.33;;;6.30;;
5811;SDS011;2932;52.400;9.558;2024-01-30T05:54:41;9.67;;;6.90;;
5811;SDS011;2932;52.400;9.558;2024-01-30T05:57:06;12.50;;;7.20;;
5811;SDS011;2932;52.400;9.558;2024-01-30T05:59:32;8.33;;;6.67;;
5811;SDS011;2932;52.400;9.558;2024-01-30T06:01:57;11.47;;;7.33;;
5811;SDS011;2932;52.400;9.558;2024-01-30T06:04:22;9.80;;;6.90;;
5811;SDS011;2932;52.400;9.558;2024-01-30T06:06:48;14.07;;;7.17;;
5811;SDS011;2932;52.400;9.558;2024-01-30T06:09:13;12.13;;;7.57;;
5811;SDS011;2932;52.400;9.558;2024-01-30T06:11:39;12.10;;;7.00;;
5811;SDS011;2932;52.400;9.558;2024-01-30T06:14:04;11.97;;;7.37;;
5811;SDS011;2932;52.400;9.558;2024-01-30T06:16:30;12.17;;;7.33;;
5811;SDS011;2932;52.400;9.558;2024-01-30T06:18:56;10.13;;;7.10;;
5811;SDS011;2932;52.400;9.558;2024-01-30T06:21:21;12.17;;;7.57;;
5811;SDS011;2932;52.400;9.558;2024-01-30T06:23:47;10.53;;;7.27;;
5811;SDS011;2932;52.400;9.558;2024-01-30T06:26:12;11.53;;;7.40;;
5811;SDS011;2932;52.400;9.558;2024-01-30T06:28:37;11.13;;;7.40;;
5811;SDS011;2932;52.400;9.558;2024-01-30T06:31:03;10.87;;;7.10;;
5811;SDS011;2932;52.400;9.558;2024-01-30T06:33:28;8.67;;;7.03;;
5811;SDS011;2932;52.400;9.558;2024-01-30T06:35:53;12.93;;;7.43;;
5811;SDS011;2932;52.400;9.558;2024-01-30T06:38:19;10.10;;;6.80;;
5811;SDS011;2932;52.400;9.558;2024-01-30T06:40:44;10.40;;;7.77;;
5811;SDS011;2932;52.400;9.558;2024-01-30T06:43:09;10.87;;;7.00;;
5811;SDS011;2932;52.400;9.558;2024-01-30T06:45:35;12.00;;;7.17;;
5811;SDS011;2932;52.400;9.558;2024-01-30T06:48:00;9.60;;;6.80;;
5811;SDS011;2932;52.400;9.558;2024-01-30T06:50:26;9.77;;;6.97;;
5811;SDS011;2932;52.400;9.558;2024-01-30T06:52:51;10.27;;;7.43;;
5811;SDS011;2932;52.400;9.558;2024-01-30T06:55:17;12.20;;;7.57;;
5811;SDS011;2932;52.400;9.558;2024-01-30T06:57:43;11.90;;;8.03;;
5811;SDS011;2932;52.400;9.558;2024-01-30T07:00:08;11.60;;;8.10;;
5811;SDS011;2932;52.400;9.558;2024-01-30T07:02:34;11.07;;;7.67;;
5811;SDS011;2932;52.400;9.558;2024-01-30T07:04:59;12.73;;;7.83;;
5811;SDS011;2932;52.400;9.558;2024-01-30T07:07:25;10.97;;;7.20;;
5811;SDS011;2932;52.400;9.558;2024-01-30T07:09:50;11.67;;;7.47;;
5811;SDS011;2932;52.400;9.558;2024-01-30T07:12:20;10.67;;;7.53;;
5811;SDS011;2932;52.400;9.558;2024-01-30T07:14:46;11.57;;;7.50;;
5811;SDS011;2932;52.400;9.558;2024-01-30T07:17:11;11.47;;;7.70;;
5811;SDS011;2932;52.400;9.558;2024-01-30T07:19:36;11.27;;;7.10;;
5811;SDS011;2932;52.400;9.558;2024-01-30T07:22:02;10.33;;;6.77;;
5811;SDS011;2932;52.400;9.558;2024-01-30T07:24:27;10.97;;;7.03;;
5811;SDS011;2932;52.400;9.558;2024-01-30T07:26:52;11.07;;;7.07;;
5811;SDS011;2932;52.400;9.558;2024-01-30T07:29:18;10.23;;;7.43;;
5811;SDS011;2932;52.400;9.558;2024-01-30T07:31:43;12.13;;;7.50;;
5811;SDS011;2932;52.400;9.558;2024-01-30T07:34:08;12.53;;;6.70;;
5811;SDS011;2932;52.400;9.558;2024-01-30T07:36:34;12.23;;;7.43;;
5811;SDS011;2932;52.400;9.558;2024-01-30T07:38:59;11.00;;;7.77;;
5811;SDS011;2932;52.400;9.558;2024-01-30T07:41:24;10.43;;;7.40;;
5811;SDS011;2932;52.400;9.558;2024-01-30T07:43:50;12.47;;;7.73;;
5811;SDS011;2932;52.400;9.558;2024-01-30T07:46:15;11.33;;;7.43;;
5811;SDS011;2932;52.400;9.558;2024-01-30T07:48:41;12.47;;;7.60;;
5811;SDS011;2932;52.400;9.558;2024-01-30T07:51:06;8.93;;;6.90;;
5811;SDS011;2932;52.400;9.558;2024-01-30T07:53:31;10.77;;;8.00;;
5811;SDS011;2932;52.400;9.558;2024-01-30T07:55:57;11.20;;;7.70;;
5811;SDS011;2932;52.400;9.558;2024-01-30T07:58:22;10.03;;;7.30;;
5811;SDS011;2932;52.400;9.558;2024-01-30T08:00:48;11.40;;;8.07;;
5811;SDS011;2932;52.400;9.558;2024-01-30T08:03:14;10.30;;;7.77;;
5811;SDS011;2932;52.400;9.558;2024-01-30T08:05:41;16.57;;;7.60;;
5811;SDS011;2932;52.400;9.558;2024-01-30T08:08:06;10.67;;;7.37;;
5811;SDS011;2932;52.400;9.558;2024-01-30T08:10:32;13.03;;;7.87;;
5811;SDS011;2932;52.400;9.558;2024-01-30T08:12:57;11.37;;;7.50;;
5811;SDS011;2932;52.400;9.558;2024-01-30T08:15:22;10.17;;;7.03;;
5811;SDS011;2932;52.400;9.558;2024-01-30T08:17:48;11.30;;;7.17;;
5811;SDS011;2932;52.400;9.558;2024-01-30T08:20:13;9.80;;;6.80;;
5811;SDS011;2932;52.400;9.558;2024-01-30T08:22:39;9.87;;;6.93;;
5811;SDS011;2932;52.400;9.558;2024-01-30T08:25:05;9.83;;;7.07;;
5811;SDS011;2932;52.400;9.558;2024-01-30T08:27:31;10.90;;;6.80;;
5811;SDS011;2932;52.400;9.558;2024-01-30T08:29:57;9.53;;;7.13;;
5811;SDS011;2932;52.400;9.558;2024-01-30T08:32:23;12.40;;;8.13;;
5811;SDS011;2932;52.400;9.558;2024-01-30T08:34:49;14.30;;;8.20;;
5811;SDS011;2932;52.400;9.558;2024-01-30T08:37:14;11.73;;;7.67;;
5811;SDS011;2932;52.400;9.558;2024-01-30T08:39:41;12.93;;;7.60;;
5811;SDS011;2932;52.400;9.558;2024-01-30T08:42:10;11.50;;;7.67;;
5811;SDS011;2932;52.400;9.558;2024-01-30T08:44:36;10.60;;;7.00;;
5811;SDS011;2932;52.400;9.558;2024-01-30T08:47:01;9.97;;;7.13;;
5811;SDS011;2932;52.400;9.558;2024-01-30T08:49:28;11.23;;;6.60;;
5811;SDS011;2932;52.400;9.558;2024-01-30T08:51:53;9.47;;;6.80;;
5811;SDS011;2932;52.400;9.558;2024-01-30T08:54:18;9.27;;;6.40;;
5811;SDS011;2932;52.400;9.558;2024-01-30T08:56:44;10.00;;;6.03;;
5811;SDS011;2932;52.400;9.558;2024-01-30T08:59:12;10.73;;;6.20;;
5811;SDS011;2932;52.400;9.558;2024-01-30T09:01:37;7.80;;;6.37;;
5811;SDS011;2932;52.400;9.558;2024-01-30T09:04:03;9.37;;;6.30;;
5811;SDS011;2932;52.400;9.558;2024-01-30T09:06:28;9.67;;;5.97;;
5811;SDS011;2932;52.400;9.558;2024-01-30T09:08:54;10.37;;;6.60;;
5811;SDS011;2932;52.400;9.558;2024-01-30T09:11:19;10.83;;;7.10;;
5811;SDS011;2932;52.400;9.558;2024-01-30T09:13:47;7.40;;;5.60;;
5811;SDS011;2932;52.400;9.558;2024-01-30T09:16:13;11.13;;;6.60;;
5811;SDS011;2932;52.400;9.558;2024-01-30T09:18:38;8.97;;;6.00;;
5811;SDS011;2932;52.400;9.558;2024-01-30T09:21:04;8.87;;;5.83;;
5811;SDS011;2932;52.400;9.558;2024-01-30T09:23:29;10.77;;;6.53;;
5811;SDS011;2932;52.400;9.558;2024-01-30T09:25:55;10.17;;;6.47;;
5811;SDS011;2932;52.400;9.558;2024-01-30T09:28:20;9.27;;;6.13;;
5811;SDS011;2932;52.400;9.558;2024-01-30T09:30:46;9.83;;;6.03;;
5811;SDS011;2932;52.400;9.558;2024-01-30T09:33:11;7.67;;;5.80;;
5811;SDS011;2932;52.400;9.558;2024-01-30T09:35:36;8.70;;;6.10;;
5811;SDS011;2932;52.400;9.558;2024-01-30T09:38:02;8.57;;;5.80;;
5811;SDS011;2932;52.400;9.558;2024-01-30T09:40:28;8.13;;;5.67;;
5811;SDS011;2932;52.400;9.558;2024-01-30T09:42:53;8.97;;;6.40;;
5811;SDS011;2932;52.400;9.558;2024-01-30T09:45:20;7.47;;;5.73;;
5811;SDS011;2932;52.400;9.558;2024-01-30T09:47:49;8.00;;;6.00;;
5811;SDS011;2932;52.400;9.558;2024-01-30T09:50:14;8.30;;;5.40;;
5811;SDS011;2932;52.400;9.558;2024-01-30T09:52:40;6.60;;;5.17;;
5811;SDS011;2932;52.400;9.558;2024-01-30T09:55:06;10.83;;;6.10;;
5811;SDS011;2932;52.400;9.558;2024-01-30T09:57:32;8.47;;;6.20;;
5811;SDS011;2932;52.400;9.558;2024-01-30T09:59:58;9.10;;;6.20;;
5811;SDS011;2932;52.400;9.558;2024-01-30T10:02:24;8.63;;;5.97;;
5811;SDS011;2932;52.400;9.558;2024-01-30T10:04:50;9.33;;;5.77;;
5811;SDS011;2932;52.400;9.558;2024-01-30T10:07:17;12.53;;;6.23;;
5811;SDS011;2932;52.400;9.558;2024-01-30T10:09:45;9.30;;;5.67;;
5811;SDS011;2932;52.400;9.558;2024-01-30T10:12:11;7.50;;;5.70;;
5811;SDS011;2932;52.400;9.558;2024-01-30T10:14:38;7.70;;;5.70;;
5811;SDS011;2932;52.400;9.558;2024-01-30T10:17:10;9.53;;;5.40;;
5811;SDS011;2932;52.400;9.558;2024-01-30T10:19:40;7.03;;;5.33;;
5811;SDS011;2932;52.400;9.558;2024-01-30T10:22:06;7.77;;;5.83;;
5811;SDS011;2932;52.400;9.558;2024-01-30T10:24:33;9.20;;;5.73;;
5811;SDS011;2932;52.400;9.558;2024-01-30T10:26:59;6.67;;;5.10;;
5811;SDS011;2932;52.400;9.558;2024-01-30T10:29:24;9.83;;;5.63;;
5811;SDS011;2932;52.400;9.558;2024-01-30T10:32:02;9.27;;;6.23;;
5811;SDS011;2932;52.400;9.558;2024-01-30T10:34:28;8.13;;;6.40;;
5811;SDS011;2932;52.400;9.558;2024-01-30T10:36:59;8.50;;;5.43;;
5811;SDS011;2932;52.400;9.558;2024-01-30T10:39:25;8.23;;;5.50;;
5811;SDS011;2932;52.400;9.558;2024-01-30T10:41:54;7.17;;;5.00;;
5811;SDS011;2932;52.400;9.558;2024-01-30T10:44:25;6.40;;;5.27;;
5811;SDS011;2932;52.400;9.558;2024-01-30T10:46:56;7.90;;;4.97;;
5811;SDS011;2932;52.400;9.558;2024-01-30T10:49:28;8.60;;;5.10;;
5811;SDS011;2932;52.400;9.558;2024-01-30T10:51:54;8.63;;;5.47;;
5811;SDS011;2932;52.400;9.558;2024-01-30T10:54:20;7.10;;;5.03;;
5811;SDS011;2932;52.400;9.558;2024-01-30T10:56:46;6.57;;;4.93;;
5811;SDS011;2932;52.400;9.558;2024-01-30T10:59:11;6.73;;;5.37;;
5811;SDS011;2932;52.400;9.558;2024-01-30T11:01:38;6.53;;;5.03;;
5811;SDS011;2932;52.400;9.558;2024-01-30T11:04:04;9.10;;;5.23;;
5811;SDS011;2932;52.400;9.558;2024-01-30T11:06:29;7.43;;;4.90;;
5811;SDS011;2932;52.400;9.558;2024-01-30T11:09:04;7.00;;;5.03;;
5811;SDS011;2932;52.400;9.558;2024-01-30T11:14:34;7.20;;;5.47;;
5811;SDS011;2932;52.400;9.558;2024-01-30T11:16:59;10.80;;;5.83;;
5811;SDS011;2932;52.400;9.558;2024-01-30T11:19:25;9.17;;;5.47;;
5811;SDS011;2932;52.400;9.558;2024-01-30T11:21:54;5.93;;;5.17;;
5811;SDS011;2932;52.400;9.558;2024-01-30T11:24:22;7.10;;;4.83;;
5811;SDS011;2932;52.400;9.558;2024-01-30T11:26:57;10.87;;;5.40;;
5811;SDS011;2932;52.400;9.558;2024-01-30T11:29:29;6.67;;;5.07;;
5811;SDS011;2932;52.400;9.558;2024-01-30T11:31:55;7.73;;;4.90;;
5811;SDS011;2932;52.400;9.558;2024-01-30T11:34:22;6.67;;;5.20;;
5811;SDS011;2932;52.400;9.558;2024-01-30T11:36:51;8.97;;;5.20;;
5811;SDS011;2932;52.400;9.558;2024-01-30T11:39:23;9.87;;;5.20;;
5811;SDS011;2932;52.400;9.558;2024-01-30T11:41:50;11.30;;;5.07;;
5811;SDS011;2932;52.400;9.558;2024-01-30T11:44:17;5.60;;;4.73;;
5811;SDS011;2932;52.400;9.558;2024-01-30T11:46:43;6.37;;;4.87;;
5811;SDS011;2932;52.400;9.558;2024-01-30T11:49:08;6.97;;;4.87;;
5811;SDS011;2932;52.400;9.558;2024-01-30T11:51:34;6.53;;;4.47;;
5811;SDS011;2932;52.400;9.558;2024-01-30T11:53:59;5.63;;;4.17;;
5811;SDS011;2932;52.400;9.558;2024-01-30T11:56:24;5.53;;;4.27;;
5811;SDS011;2932;52.400;9.558;2024-01-30T11:58:51;7.83;;;4.67;;
5811;SDS011;2932;52.400;9.558;2024-01-30T12:01:17;6.17;;;4.30;;
5811;SDS011;2932;52.400;9.558;2024-01-30T12:03:43;5.82;;;3.80;;
5811;SDS011;2932;52.400;9.558;2024-01-30T12:06:15;7.68;;;3.90;;
5811;SDS011;2932;52.400;9.558;2024-01-30T12:08:42;7.32;;;3.95;;
5811;SDS011;2932;52.400;9.558;2024-01-30T12:11:09;7.32;;;4.30;;
5811;SDS011;2932;52.400;9.558;2024-01-30T12:13:35;6.80;;;3.97;;
5811;SDS011;2932;52.400;9.558;2024-01-30T12:16:00;5.75;;;4.18;;
5811;SDS011;2932;52.400;9.558;2024-01-30T12:18:26;7.05;;;3.65;;
5811;SDS011;2932;52.400;9.558;2024-01-30T12:21:02;7.00;;;4.15;;
5811;SDS011;2932;52.400;9.558;2024-01-30T12:23:33;6.28;;;4.03;;
5811;SDS011;2932;52.400;9.558;2024-01-30T12:26:05;6.40;;;3.90;;
5811;SDS011;2932;52.400;9.558;2024-01-30T12:28:32;4.63;;;3.45;;
5811;SDS011;2932;52.400;9.558;2024-01-30T12:31:01;7.47;;;4.40;;
5811;SDS011;2932;52.400;9.558;2024-01-30T12:33:28;4.68;;;3.92;;
5811;SDS011;2932;52.400;9.558;2024-01-30T12:35:54;6.15;;;4.32;;
5811;SDS011;2932;52.400;9.558;2024-01-30T12:38:19;5.90;;;3.80;;
5811;SDS011;2932;52.400;9.558;2024-01-30T12:40:44;6.28;;;4.20;;
5811;SDS011;2932;52.400;9.558;2024-01-30T12:43:10;10.15;;;4.47;;
5811;SDS011;2932;52.400;9.558;2024-01-30T12:45:36;6.22;;;4.45;;
5811;SDS011;2932;52.400;9.558;2024-01-30T12:48:01;5.85;;;4.15;;
5811;SDS011;2932;52.400;9.558;2024-01-30T12:50:29;8.85;;;4.43;;
5811;SDS011;2932;52.400;9.558;2024-01-30T12:52:55;6.38;;;4.25;;
5811;SDS011;2932;52.400;9.558;2024-01-30T12:55:21;6.28;;;4.53;;
5811;SDS011;2932;52.400;9.558;2024-01-30T12:57:46;11.30;;;4.53;;
5811;SDS011;2932;52.400;9.558;2024-01-30T13:00:11;7.15;;;4.28;;
5811;SDS011;2932;52.400;9.558;2024-01-30T13:02:37;6.00;;;4.47;;
5811;SDS011;2932;52.400;9.558;2024-01-30T13:05:04;5.93;;;4.22;;
5811;SDS011;2932;52.400;9.558;2024-01-30T13:07:29;7.80;;;4.60;;
5811;SDS011;2932;52.400;9.558;2024-01-30T13:09:58;7.90;;;4.70;;
5811;SDS011;2932;52.400;9.558;2024-01-30T13:12:29;7.18;;;4.15;;
5811;SDS011;2932;52.400;9.558;2024-01-30T13:14:55;7.57;;;4.57;;
5811;SDS011;2932;52.400;9.558;2024-01-30T13:17:20;6.10;;;4.40;;
5811;SDS011;2932;52.400;9.558;2024-01-30T13:19:46;5.27;;;4.53;;
5811;SDS011;2932;52.400;9.558;2024-01-30T13:22:11;8.73;;;4.60;;
5811;SDS011;2932;52.400;9.558;2024-01-30T13:24:36;7.80;;;4.70;;
5811;SDS011;2932;52.400;9.558;2024-01-30T13:27:02;6.23;;;5.00;;
5811;SDS011;2932;52.400;9.558;2024-01-30T13:29:30;7.83;;;5.00;;
5811;SDS011;2932;52.400;9.558;2024-01-30T13:31:56;9.97;;;4.67;;
5811;SDS011;2932;52.400;9.558;2024-01-30T13:34:21;7.60;;;4.63;;
5811;SDS011;2932;52.400;9.558;2024-01-30T13:36:46;7.47;;;4.67;;
5811;SDS011;2932;52.400;9.558;2024-01-30T13:39:13;6.80;;;5.00;;
5811;SDS011;2932;52.400;9.558;2024-01-30T13:41:39;10.43;;;4.67;;
5811;SDS011;2932;52.400;9.558;2024-01-30T13:44:05;11.03;;;4.93;;
5811;SDS011;2932;52.400;9.558;2024-01-30T13:46:31;10.00;;;4.80;;
5811;SDS011;2932;52.400;9.558;2024-01-30T13:48:56;6.93;;;5.07;;
5811;SDS011;2932;52.400;9.558;2024-01-30T13:51:22;9.20;;;4.70;;
5811;SDS011;2932;52.400;9.558;2024-01-30T13:53:47;5.47;;;4.40;;
5811;SDS011;2932;52.400;9.558;2024-01-30T13:56:14;6.57;;;4.53;;
5811;SDS011;2932;52.400;9.558;2024-01-30T13:58:40;6.97;;;4.90;;
5811;SDS011;2932;52.400;9.558;2024-01-30T14:01:05;8.30;;;4.73;;
5811;SDS011;2932;52.400;9.558;2024-01-30T14:03:30;9.03;;;4.70;;
5811;SDS011;2932;52.400;9.558;2024-01-30T14:05:56;8.30;;;4.53;;
5811;SDS011;2932;52.400;9.558;2024-01-30T14:08:21;9.90;;;5.40;;
5811;SDS011;2932;52.400;9.558;2024-01-30T14:10:48;8.33;;;4.87;;
5811;SDS011;2932;52.400;9.558;2024-01-30T14:13:14;7.43;;;4.60;;
5811;SDS011;2932;52.400;9.558;2024-01-30T14:15:39;7.23;;;5.03;;
5811;SDS011;2932;52.400;9.558;2024-01-30T14:18:05;9.43;;;5.50;;
5811;SDS011;2932;52.400;9.558;2024-01-30T14:20:33;5.90;;;4.30;;
5811;SDS011;2932;52.400;9.558;2024-01-30T14:22:58;8.17;;;5.10;;
5811;SDS011;2932;52.400;9.558;2024-01-30T14:25:24;6.60;;;4.73;;
5811;SDS011;2932;52.400;9.558;2024-01-30T14:27:49;8.90;;;5.03;;
5811;SDS011;2932;52.400;9.558;2024-01-30T14:30:14;6.97;;;4.23;;
5811;SDS011;2932;52.400;9.558;2024-01-30T14:32:40;12.27;;;4.87;;
5811;SDS011;2932;52.400;9.558;2024-01-30T14:35:07;7.47;;;4.43;;
5811;SDS011;2932;52.400;9.558;2024-01-30T14:37:33;5.43;;;4.60;;
5811;SDS011;2932;52.400;9.558;2024-01-30T14:39:59;6.90;;;4.73;;
5811;SDS011;2932;52.400;9.558;2024-01-30T14:42:24;5.90;;;4.40;;
5811;SDS011;2932;52.400;9.558;2024-01-30T14:44:50;8.93;;;5.03;;
5811;SDS011;2932;52.400;9.558;2024-01-30T14:47:15;10.10;;;5.43;;
5811;SDS011;2932;52.400;9.558;2024-01-30T14:49:40;10.87;;;5.77;;
5811;SDS011;2932;52.400;9.558;2024-01-30T14:52:06;10.27;;;5.07;;
5811;SDS011;2932;52.400;9.558;2024-01-30T14:54:31;8.33;;;4.87;;
5811;SDS011;2932;52.400;9.558;2024-01-30T14:56:57;8.80;;;5.60;;
5811;SDS011;2932;52.400;9.558;2024-01-30T14:59:24;9.20;;;5.57;;
5811;SDS011;2932;52.400;9.558;2024-01-30T15:01:49;11.57;;;6.10;;
5811;SDS011;2932;52.400;9.558;2024-01-30T15:04:15;9.43;;;5.90;;